sensor_id;sensor_type;location;lat;lon;timestamp;P1;durP1;ratioP1;P2;durP2;ratioP2
8260;SDS011;64115;50.170;8.242;2024-02-26T00:01:47;0.97;;;0.97;;
8260;SDS011;64115;50.170;8.242;2024-02-26T00:04:14;0.93;;;0.93;;
8260;SDS011;64115;50.170;8.242;2024-02-26T00:06:41;0.87;;;0.87;;
8260;SDS011;64115;50.170;8.242;2024-02-26T00:09:08;2.50;;;1.00;;
8260;SDS011;64115;50.170;8.242;2024-02-26T00:11:35;0.80;;;0.80;;
8260;SDS011;64115;50.170;8.242;2024-02-26T00:14:03;1.03;;;1.03;;
8260;SDS011;64115;50.170;8.242;2024-02-26T00:16:29;1.33;;;1.00;;
8260;SDS011;64115;50.170;8.242;2024-02-26T00:18:58;0.90;;;0.90;;
8260;SDS011;64115;50.170;8.242;2024-02-26T00:21:24;1.23;;;0.83;;
8260;SDS011;64115;50.170;8.242;2024-02-26T00:23:52;0.90;;;0.90;;
8260;SDS011;64115;50.170;8.242;2024-02-26T00:26:19;0.80;;;0.80;;
8260;SDS011;64115;50.170;8.242;2024-02-26T00:28:46;1.00;;;0.90;;
8260;SDS011;64115;50.170;8.242;2024-02-26T00:31:13;1.17;;;1.07;;
8260;SDS011;64115;50.170;8.242;2024-02-26T00:33:39;0.93;;;0.93;;
8260;SDS011;64115;50.170;8.242;2024-02-26T00:36:07;1.43;;;0.97;;
8260;SDS011;64115;50.170;8.242;2024-02-26T00:38:35;1.97;;;0.77;;
8260;SDS011;64115;50.170;8.242;2024-02-26T00:41:01;0.83;;;0.80;;
8260;SDS011;64115;50.170;8.242;2024-02-26T00:43:28;0.97;;;0.77;;
8260;SDS011;64115;50.170;8.242;2024-02-26T00:45:55;1.03;;;1.00;;
8260;SDS011;64115;50.170;8.242;2024-02-26T00:48:22;1.80;;;0.90;;
8260;SDS011;64115;50.170;8.242;2024-02-26T00:50:50;0.70;;;0.70;;
8260;SDS011;64115;50.170;8.242;2024-02-26T00:53:18;0.90;;;0.90;;
8260;SDS011;64115;50.170;8.242;2024-02-26T00:55:45;0.57;;;0.57;;
8260;SDS011;64115;50.170;8.242;2024-02-26T00:58:12;1.07;;;0.90;;
8260;SDS011;64115;50.170;8.242;2024-02-26T01:00:38;1.00;;;1.00;;
8260;SDS011;64115;50.170;8.242;2024-02-26T01:03:05;0.83;;;0.83;;
8260;SDS011;64115;50.170;8.242;2024-02-26T01:05:32;0.70;;;0.70;;
8260;SDS011;64115;50.170;8.242;2024-02-26T01:07:59;1.00;;;1.00;;
8260;SDS011;64115;50.170;8.242;2024-02-26T01:10:27;0.90;;;0.90;;
8260;SDS011;64115;50.170;8.242;2024-02-26T01:12:54;0.97;;;0.90;;
8260;SDS011;64115;50.170;8.242;2024-02-26T01:15:21;0.90;;;0.90;;
8260;SDS011;64115;50.170;8.242;2024-02-26T01:17:48;0.80;;;0.80;;
8260;SDS011;64115;50.170;8.242;2024-02-26T01:20:15;0.80;;;0.80;;
8260;SDS011;64115;50.170;8.242;2024-02-26T01:22:42;0.80;;;0.80;;
8260;SDS011;64115;50.170;8.242;2024-02-26T01:25:09;1.37;;;0.90;;
8260;SDS011;64115;50.170;8.242;2024-02-26T01:27:37;0.80;;;0.80;;
8260;SDS011;64115;50.170;8.242;2024-02-26T01:30:06;0.83;;;0.83;;
8260;SDS011;64115;50.170;8.242;2024-02-26T01:32:34;1.37;;;0.83;;
8260;SDS011;64115;50.170;8.242;2024-02-26T01:35:01;1.10;;;0.90;;
8260;SDS011;64115;50.170;8.242;2024-02-26T01:37:30;1.00;;;1.00;;
8260;SDS011;64115;50.170;8.242;2024-02-26T01:39:57;0.83;;;0.80;;
8260;SDS011;64115;50.170;8.242;2024-02-26T01:42:23;1.00;;;1.00;;
8260;SDS011;64115;50.170;8.242;2024-02-26T01:44:51;0.93;;;0.93;;
8260;SDS011;64115;50.170;8.242;2024-02-26T01:47:18;0.80;;;0.80;;
8260;SDS011;64115;50.170;8.242;2024-02-26T01:49:45;1.77;;;1.10;;
8260;SDS011;64115;50.170;8.242;2024-02-26T01:52:12;1.17;;;1.07;;
8260;SDS011;64115;50.170;8.242;2024-02-26T01:54:39;0.67;;;0.67;;
8260;SDS011;64115;50.170;8.242;2024-02-26T01:57:08;1.87;;;0.97;;
8260;SDS011;64115;50.170;8.242;2024-02-26T01:59:35;1.00;;;1.00;;
8260;SDS011;64115;50.170;8.242;2024-02-26T02:02:05;1.17;;;1.13;;
8260;SDS011;64115;50.170;8.242;2024-02-26T02:04:34;0.80;;;0.80;;
8260;SDS011;64115;50.170;8.242;2024-02-26T02:07:01;2.40;;;1.30;;
8260;SDS011;64115;50.170;8.242;2024-02-26T02:09:28;1.10;;;1.10;;
8260;SDS011;64115;50.170;8.242;2024-02-26T02:11:55;1.00;;;1.00;;
8260;SDS011;64115;50.170;8.242;2024-02-26T02:14:22;1.30;;;1.20;;
8260;SDS011;64115;50.170;8.242;2024-02-26T02:16:49;1.30;;;1.20;;
8260;SDS011;64115;50.170;8.242;2024-02-26T02:19:17;1.77;;;1.10;;
8260;SDS011;64115;50.170;8.242;2024-02-26T02:21:45;1.03;;;1.03;;
8260;SDS011;64115;50.170;8.242;2024-02-26T02:24:12;1.00;;;1.00;;
8260;SDS011;64115;50.170;8.242;2024-02-26T02:26:38;1.83;;;1.00;;
8260;SDS011;64115;50.170;8.242;2024-02-26T02:29:05;2.03;;;1.10;;
8260;SDS011;64115;50.170;8.242;2024-02-26T02:31:34;1.10;;;1.10;;
8260;SDS011;64115;50.170;8.242;2024-02-26T02:34:01;1.03;;;1.00;;
8260;SDS011;64115;50.170;8.242;2024-02-26T02:36:28;1.23;;;1.13;;
8260;SDS011;64115;50.170;8.242;2024-02-26T02:38:56;1.27;;;1.20;;
8260;SDS011;64115;50.170;8.242;2024-02-26T02:41:23;1.03;;;1.03;;
8260;SDS011;64115;50.170;8.242;2024-02-26T02:43:51;1.00;;;1.00;;
8260;SDS011;64115;50.170;8.242;2024-02-26T02:46:18;1.40;;;1.30;;
8260;SDS011;64115;50.170;8.242;2024-02-26T02:48:45;1.40;;;1.30;;
8260;SDS011;64115;50.170;8.242;2024-02-26T02:51:12;1.10;;;1.10;;
8260;SDS011;64115;50.170;8.242;2024-02-26T02:53:38;1.40;;;1.30;;
8260;SDS011;64115;50.170;8.242;2024-02-26T02:56:07;1.20;;;1.20;;
8260;SDS011;64115;50.170;8.242;2024-02-26T02:58:33;1.43;;;1.33;;
8260;SDS011;64115;50.170;8.242;2024-02-26T03:01:00;1.50;;;1.30;;
8260;SDS011;64115;50.170;8.242;2024-02-26T03:03:27;1.40;;;1.30;;
8260;SDS011;64115;50.170;8.242;2024-02-26T03:05:54;1.30;;;1.20;;
8260;SDS011;64115;50.170;8.242;2024-02-26T03:08:21;1.00;;;1.00;;
8260;SDS011;64115;50.170;8.242;2024-02-26T03:10:48;1.50;;;1.37;;
8260;SDS011;64115;50.170;8.242;2024-02-26T03:13:17;1.40;;;1.30;;
8260;SDS011;64115;50.170;8.242;2024-02-26T03:15:43;1.37;;;1.27;;
8260;SDS011;64115;50.170;8.242;2024-02-26T03:18:10;1.20;;;1.20;;
8260;SDS011;64115;50.170;8.242;2024-02-26T03:20:37;1.90;;;1.30;;
8260;SDS011;64115;50.170;8.242;2024-02-26T03:23:04;1.37;;;1.27;;
8260;SDS011;64115;50.170;8.242;2024-02-26T03:25:31;1.27;;;1.27;;
8260;SDS011;64115;50.170;8.242;2024-02-26T03:27:58;1.27;;;1.20;;
8260;SDS011;64115;50.170;8.242;2024-02-26T03:30:27;1.40;;;1.30;;
8260;SDS011;64115;50.170;8.242;2024-02-26T03:32:53;1.87;;;1.30;;
8260;SDS011;64115;50.170;8.242;2024-02-26T03:35:20;1.40;;;1.40;;
8260;SDS011;64115;50.170;8.242;2024-02-26T03:37:47;1.50;;;1.40;;
8260;SDS011;64115;50.170;8.242;2024-02-26T03:40:15;1.40;;;1.30;;
8260;SDS011;64115;50.170;8.242;2024-02-26T03:42:44;1.30;;;1.20;;
8260;SDS011;64115;50.170;8.242;2024-02-26T03:45:11;1.57;;;1.23;;
8260;SDS011;64115;50.170;8.242;2024-02-26T03:47:39;1.83;;;1.50;;
8260;SDS011;64115;50.170;8.242;2024-02-26T03:50:06;1.20;;;1.20;;
8260;SDS011;64115;50.170;8.242;2024-02-26T03:52:33;1.33;;;1.23;;
8260;SDS011;64115;50.170;8.242;2024-02-26T03:55:00;1.50;;;1.40;;
8260;SDS011;64115;50.170;8.242;2024-02-26T03:57:27;1.37;;;1.37;;
8260;SDS011;64115;50.170;8.242;2024-02-26T03:59:53;1.60;;;1.50;;
8260;SDS011;64115;50.170;8.242;2024-02-26T04:02:21;1.90;;;1.50;;
8260;SDS011;64115;50.170;8.242;2024-02-26T04:04:49;1.50;;;1.40;;
8260;SDS011;64115;50.170;8.242;2024-02-26T04:07:16;1.63;;;1.53;;
8260;SDS011;64115;50.170;8.242;2024-02-26T04:09:42;1.83;;;1.50;;
8260;SDS011;64115;50.170;8.242;2024-02-26T04:12:10;1.67;;;1.57;;
8260;SDS011;64115;50.170;8.242;2024-02-26T04:14:37;2.43;;;1.70;;
8260;SDS011;64115;50.170;8.242;2024-02-26T04:17:04;1.43;;;1.30;;
8260;SDS011;64115;50.170;8.242;2024-02-26T04:19:31;2.17;;;1.33;;
8260;SDS011;64115;50.170;8.242;2024-02-26T04:21:59;1.50;;;1.40;;
8260;SDS011;64115;50.170;8.242;2024-02-26T04:24:26;1.60;;;1.50;;
8260;SDS011;64115;50.170;8.242;2024-02-26T04:26:52;1.53;;;1.43;;
8260;SDS011;64115;50.170;8.242;2024-02-26T04:29:19;1.67;;;1.57;;
8260;SDS011;64115;50.170;8.242;2024-02-26T04:31:46;1.50;;;1.40;;
8260;SDS011;64115;50.170;8.242;2024-02-26T04:34:13;1.50;;;1.40;;
8260;SDS011;64115;50.170;8.242;2024-02-26T04:36:39;1.77;;;1.60;;
8260;SDS011;64115;50.170;8.242;2024-02-26T04:39:08;2.20;;;1.77;;
8260;SDS011;64115;50.170;8.242;2024-02-26T04:41:36;1.70;;;1.60;;
8260;SDS011;64115;50.170;8.242;2024-02-26T04:44:03;2.03;;;1.83;;
8260;SDS011;64115;50.170;8.242;2024-02-26T04:46:29;2.03;;;1.93;;
8260;SDS011;64115;50.170;8.242;2024-02-26T04:48:56;1.80;;;1.60;;
8260;SDS011;64115;50.170;8.242;2024-02-26T04:51:23;2.00;;;1.90;;
8260;SDS011;64115;50.170;8.242;2024-02-26T04:53:50;2.47;;;1.90;;
8260;SDS011;64115;50.170;8.242;2024-02-26T04:56:19;2.00;;;1.90;;
8260;SDS011;64115;50.170;8.242;2024-02-26T04:58:46;1.90;;;1.80;;
8260;SDS011;64115;50.170;8.242;2024-02-26T05:01:13;1.90;;;1.80;;
8260;SDS011;64115;50.170;8.242;2024-02-26T05:03:41;2.23;;;2.03;;
8260;SDS011;64115;50.170;8.242;2024-02-26T05:06:08;1.87;;;1.77;;
8260;SDS011;64115;50.170;8.242;2024-02-26T05:08:35;4.00;;;1.50;;
8260;SDS011;64115;50.170;8.242;2024-02-26T05:11:03;1.80;;;1.70;;
8260;SDS011;64115;50.170;8.242;2024-02-26T05:13:32;1.80;;;1.70;;
8260;SDS011;64115;50.170;8.242;2024-02-26T05:15:59;2.40;;;1.60;;
8260;SDS011;64115;50.170;8.242;2024-02-26T05:18:25;1.90;;;1.80;;
8260;SDS011;64115;50.170;8.242;2024-02-26T05:20:53;1.77;;;1.70;;
8260;SDS011;64115;50.170;8.242;2024-02-26T05:23:20;3.03;;;1.70;;
8260;SDS011;64115;50.170;8.242;2024-02-26T05:25:48;2.00;;;1.90;;
8260;SDS011;64115;50.170;8.242;2024-02-26T05:28:15;1.87;;;1.77;;
8260;SDS011;64115;50.170;8.242;2024-02-26T05:30:43;1.87;;;1.77;;
8260;SDS011;64115;50.170;8.242;2024-02-26T05:33:10;2.20;;;2.00;;
8260;SDS011;64115;50.170;8.242;2024-02-26T05:35:36;1.70;;;1.60;;
8260;SDS011;64115;50.170;8.242;2024-02-26T05:38:03;1.50;;;1.40;;
8260;SDS011;64115;50.170;8.242;2024-02-26T05:40:30;1.67;;;1.57;;
8260;SDS011;64115;50.170;8.242;2024-02-26T05:42:57;1.60;;;1.50;;
8260;SDS011;64115;50.170;8.242;2024-02-26T05:45:24;1.47;;;1.47;;
8260;SDS011;64115;50.170;8.242;2024-02-26T05:47:52;1.70;;;1.60;;
8260;SDS011;64115;50.170;8.242;2024-02-26T05:50:18;1.47;;;1.47;;
8260;SDS011;64115;50.170;8.242;2024-02-26T05:52:45;2.50;;;2.30;;
8260;SDS011;64115;50.170;8.242;2024-02-26T05:55:12;2.70;;;2.50;;
8260;SDS011;64115;50.170;8.242;2024-02-26T05:57:39;3.10;;;2.90;;
8260;SDS011;64115;50.170;8.242;2024-02-26T06:00:06;2.80;;;2.57;;
8260;SDS011;64115;50.170;8.242;2024-02-26T06:02:33;2.63;;;2.43;;
8260;SDS011;64115;50.170;8.242;2024-02-26T06:05:02;2.80;;;2.60;;
8260;SDS011;64115;50.170;8.242;2024-02-26T06:07:29;3.43;;;3.13;;
8260;SDS011;64115;50.170;8.242;2024-02-26T06:09:55;3.60;;;3.30;;
8260;SDS011;64115;50.170;8.242;2024-02-26T06:12:22;4.10;;;3.27;;
8260;SDS011;64115;50.170;8.242;2024-02-26T06:14:49;4.00;;;3.60;;
8260;SDS011;64115;50.170;8.242;2024-02-26T06:17:16;4.47;;;4.10;;
8260;SDS011;64115;50.170;8.242;2024-02-26T06:19:42;5.40;;;5.00;;
8260;SDS011;64115;50.170;8.242;2024-02-26T06:22:10;5.27;;;4.87;;
8260;SDS011;64115;50.170;8.242;2024-02-26T06:24:37;6.03;;;5.03;;
8260;SDS011;64115;50.170;8.242;2024-02-26T06:27:04;5.53;;;5.07;;
8260;SDS011;64115;50.170;8.242;2024-02-26T06:29:31;5.63;;;5.13;;
8260;SDS011;64115;50.170;8.242;2024-02-26T06:31:58;5.10;;;4.70;;
8260;SDS011;64115;50.170;8.242;2024-02-26T06:34:25;5.50;;;5.00;;
8260;SDS011;64115;50.170;8.242;2024-02-26T06:36:51;5.03;;;4.63;;
8260;SDS011;64115;50.170;8.242;2024-02-26T06:39:19;5.50;;;5.00;;
8260;SDS011;64115;50.170;8.242;2024-02-26T06:41:46;5.10;;;4.63;;
8260;SDS011;64115;50.170;8.242;2024-02-26T06:44:13;4.50;;;4.20;;
8260;SDS011;64115;50.170;8.242;2024-02-26T06:46:40;4.93;;;4.53;;
8260;SDS011;64115;50.170;8.242;2024-02-26T06:49:06;5.87;;;5.37;;
8260;SDS011;64115;50.170;8.242;2024-02-26T06:51:33;6.33;;;5.73;;
8260;SDS011;64115;50.170;8.242;2024-02-26T06:54:00;6.53;;;5.90;;
8260;SDS011;64115;50.170;8.242;2024-02-26T06:56:28;6.93;;;6.23;;
8260;SDS011;64115;50.170;8.242;2024-02-26T06:58:55;5.80;;;5.30;;
8260;SDS011;64115;50.170;8.242;2024-02-26T07:01:22;6.07;;;5.47;;
8260;SDS011;64115;50.170;8.242;2024-02-26T07:03:48;6.30;;;5.80;;
8260;SDS011;64115;50.170;8.242;2024-02-26T07:06:15;5.47;;;4.97;;
8260;SDS011;64115;50.170;8.242;2024-02-26T07:08:42;6.27;;;5.67;;
8260;SDS011;64115;50.170;8.242;2024-02-26T07:11:09;7.20;;;6.17;;
8260;SDS011;64115;50.170;8.242;2024-02-26T07:13:38;6.73;;;5.97;;
8260;SDS011;64115;50.170;8.242;2024-02-26T07:16:05;6.00;;;5.50;;
8260;SDS011;64115;50.170;8.242;2024-02-26T07:18:32;6.60;;;5.90;;
8260;SDS011;64115;50.170;8.242;2024-02-26T07:21:01;6.63;;;5.90;;
8260;SDS011;64115;50.170;8.242;2024-02-26T07:23:28;7.03;;;5.90;;
8260;SDS011;64115;50.170;8.242;2024-02-26T07:25:55;7.40;;;6.70;;
8260;SDS011;64115;50.170;8.242;2024-02-26T07:28:22;7.40;;;6.70;;
8260;SDS011;64115;50.170;8.242;2024-02-26T07:30:51;8.30;;;6.80;;
8260;SDS011;64115;50.170;8.242;2024-02-26T07:33:18;5.90;;;5.07;;
8260;SDS011;64115;50.170;8.242;2024-02-26T07:35:44;7.03;;;6.30;;
8260;SDS011;64115;50.170;8.242;2024-02-26T07:38:11;5.87;;;5.23;;
8260;SDS011;64115;50.170;8.242;2024-02-26T07:40:39;5.93;;;5.37;;
8260;SDS011;64115;50.170;8.242;2024-02-26T07:43:05;6.50;;;5.77;;
8260;SDS011;64115;50.170;8.242;2024-02-26T07:45:32;6.37;;;5.57;;
8260;SDS011;64115;50.170;8.242;2024-02-26T07:48:02;6.57;;;5.83;;
8260;SDS011;64115;50.170;8.242;2024-02-26T07:50:29;5.73;;;5.23;;
8260;SDS011;64115;50.170;8.242;2024-02-26T07:52:56;6.37;;;5.57;;
8260;SDS011;64115;50.170;8.242;2024-02-26T07:55:23;7.00;;;5.47;;
8260;SDS011;64115;50.170;8.242;2024-02-26T07:57:50;6.13;;;5.53;;
8260;SDS011;64115;50.170;8.242;2024-02-26T08:00:17;5.57;;;4.93;;
8260;SDS011;64115;50.170;8.242;2024-02-26T08:02:44;7.07;;;5.40;;
8260;SDS011;64115;50.170;8.242;2024-02-26T08:05:13;5.30;;;4.80;;
8260;SDS011;64115;50.170;8.242;2024-02-26T08:07:40;7.33;;;5.63;;
8260;SDS011;64115;50.170;8.242;2024-02-26T08:10:07;7.27;;;5.50;;
8260;SDS011;64115;50.170;8.242;2024-02-26T08:12:35;5.57;;;4.63;;
8260;SDS011;64115;50.170;8.242;2024-02-26T08:15:03;6.00;;;5.07;;
8260;SDS011;64115;50.170;8.242;2024-02-26T08:17:30;5.70;;;5.20;;
8260;SDS011;64115;50.170;8.242;2024-02-26T08:19:57;6.30;;;5.57;;
8260;SDS011;64115;50.170;8.242;2024-02-26T08:22:26;6.13;;;5.43;;
8260;SDS011;64115;50.170;8.242;2024-02-26T08:24:52;6.50;;;5.63;;
8260;SDS011;64115;50.170;8.242;2024-02-26T08:27:21;6.00;;;5.40;;
8260;SDS011;64115;50.170;8.242;2024-02-26T08:29:47;5.97;;;5.40;;
8260;SDS011;64115;50.170;8.242;2024-02-26T08:32:14;6.23;;;5.63;;
8260;SDS011;64115;50.170;8.242;2024-02-26T08:34:41;6.40;;;5.17;;
8260;SDS011;64115;50.170;8.242;2024-02-26T08:37:08;5.77;;;5.13;;
8260;SDS011;64115;50.170;8.242;2024-02-26T08:39:36;6.27;;;5.67;;
8260;SDS011;64115;50.170;8.242;2024-02-26T08:42:04;6.47;;;5.20;;
8260;SDS011;64115;50.170;8.242;2024-02-26T08:44:31;5.73;;;4.87;;
8260;SDS011;64115;50.170;8.242;2024-02-26T08:46:58;6.07;;;5.40;;
8260;SDS011;64115;50.170;8.242;2024-02-26T08:49:25;6.87;;;5.30;;
8260;SDS011;64115;50.170;8.242;2024-02-26T08:51:51;6.17;;;5.57;;
8260;SDS011;64115;50.170;8.242;2024-02-26T08:54:18;7.20;;;5.80;;
8260;SDS011;64115;50.170;8.242;2024-02-26T08:56:46;5.77;;;5.13;;
8260;SDS011;64115;50.170;8.242;2024-02-26T08:59:13;6.83;;;5.53;;
8260;SDS011;64115;50.170;8.242;2024-02-26T09:01:41;6.00;;;5.47;;
8260;SDS011;64115;50.170;8.242;2024-02-26T09:04:08;6.10;;;5.50;;
8260;SDS011;64115;50.170;8.242;2024-02-26T09:06:35;6.90;;;5.63;;
8260;SDS011;64115;50.170;8.242;2024-02-26T09:09:01;5.80;;;5.20;;
8260;SDS011;64115;50.170;8.242;2024-02-26T09:11:28;6.70;;;5.20;;
8260;SDS011;64115;50.170;8.242;2024-02-26T09:13:57;6.70;;;6.00;;
8260;SDS011;64115;50.170;8.242;2024-02-26T09:16:24;6.27;;;5.67;;
8260;SDS011;64115;50.170;8.242;2024-02-26T09:18:51;6.27;;;5.67;;
8260;SDS011;64115;50.170;8.242;2024-02-26T09:21:17;6.70;;;5.80;;
8260;SDS011;64115;50.170;8.242;2024-02-26T09:23:48;5.93;;;5.40;;
8260;SDS011;64115;50.170;8.242;2024-02-26T09:26:15;9.27;;;5.70;;
8260;SDS011;64115;50.170;8.242;2024-02-26T09:28:42;5.43;;;4.93;;
8260;SDS011;64115;50.170;8.242;2024-02-26T09:31:10;5.87;;;5.37;;
8260;SDS011;64115;50.170;8.242;2024-02-26T09:33:37;6.27;;;5.17;;
8260;SDS011;64115;50.170;8.242;2024-02-26T09:36:04;6.70;;;5.90;;
8260;SDS011;64115;50.170;8.242;2024-02-26T09:38:31;6.10;;;5.50;;
8260;SDS011;64115;50.170;8.242;2024-02-26T09:41:02;7.07;;;6.37;;
8260;SDS011;64115;50.170;8.242;2024-02-26T09:43:31;8.30;;;5.70;;
8260;SDS011;64115;50.170;8.242;2024-02-26T09:46:01;8.60;;;5.70;;
8260;SDS011;64115;50.170;8.242;2024-02-26T09:48:29;8.33;;;6.47;;
8260;SDS011;64115;50.170;8.242;2024-02-26T09:50:56;6.80;;;6.07;;
8260;SDS011;64115;50.170;8.242;2024-02-26T09:53:23;7.93;;;6.60;;
8260;SDS011;64115;50.170;8.242;2024-02-26T09:55:49;7.80;;;6.40;;
8260;SDS011;64115;50.170;8.242;2024-02-26T09:58:17;7.73;;;6.13;;
8260;SDS011;64115;50.170;8.242;2024-02-26T10:00:46;9.97;;;6.13;;
8260;SDS011;64115;50.170;8.242;2024-02-26T10:03:17;8.00;;;7.00;;
8260;SDS011;64115;50.170;8.242;2024-02-26T10:05:48;9.80;;;6.80;;
8260;SDS011;64115;50.170;8.242;2024-02-26T10:08:18;10.50;;;7.27;;
8260;SDS011;64115;50.170;8.242;2024-02-26T10:10:47;10.10;;;6.83;;
8260;SDS011;64115;50.170;8.242;2024-02-26T10:13:15;7.50;;;6.70;;
8260;SDS011;64115;50.170;8.242;2024-02-26T10:15:41;11.13;;;7.23;;
8260;SDS011;64115;50.170;8.242;2024-02-26T10:18:08;8.00;;;7.13;;
8260;SDS011;64115;50.170;8.242;2024-02-26T10:20:35;9.57;;;7.40;;
8260;SDS011;64115;50.170;8.242;2024-02-26T10:23:04;7.03;;;6.33;;
8260;SDS011;64115;50.170;8.242;2024-02-26T10:25:31;10.60;;;7.00;;
8260;SDS011;64115;50.170;8.242;2024-02-26T10:27:59;9.70;;;7.13;;
8260;SDS011;64115;50.170;8.242;2024-02-26T10:30:28;8.50;;;7.07;;
8260;SDS011;64115;50.170;8.242;2024-02-26T10:32:55;8.80;;;6.70;;
8260;SDS011;64115;50.170;8.242;2024-02-26T10:35:22;6.03;;;5.53;;
8260;SDS011;64115;50.170;8.242;2024-02-26T10:37:50;8.07;;;6.33;;
8260;SDS011;64115;50.170;8.242;2024-02-26T10:40:19;7.00;;;6.30;;
8260;SDS011;64115;50.170;8.242;2024-02-26T10:42:45;8.97;;;6.40;;
8260;SDS011;64115;50.170;8.242;2024-02-26T10:45:12;9.97;;;6.33;;
8260;SDS011;64115;50.170;8.242;2024-02-26T10:47:40;7.67;;;6.23;;
8260;SDS011;64115;50.170;8.242;2024-02-26T10:50:07;7.13;;;6.07;;
8260;SDS011;64115;50.170;8.242;2024-02-26T10:52:36;7.17;;;6.47;;
8260;SDS011;64115;50.170;8.242;2024-02-26T10:55:03;7.13;;;6.40;;
8260;SDS011;64115;50.170;8.242;2024-02-26T10:57:33;6.40;;;5.80;;
8260;SDS011;64115;50.170;8.242;2024-02-26T11:00:03;6.33;;;5.73;;
8260;SDS011;64115;50.170;8.242;2024-02-26T11:02:32;6.33;;;5.60;;
8260;SDS011;64115;50.170;8.242;2024-02-26T11:05:00;6.23;;;5.50;;
8260;SDS011;64115;50.170;8.242;2024-02-26T11:07:28;6.83;;;6.17;;
8260;SDS011;64115;50.170;8.242;2024-02-26T11:09:57;5.77;;;5.20;;
8260;SDS011;64115;50.170;8.242;2024-02-26T11:12:26;6.00;;;4.93;;
8260;SDS011;64115;50.170;8.242;2024-02-26T11:14:56;5.33;;;4.80;;
8260;SDS011;64115;50.170;8.242;2024-02-26T11:17:24;4.50;;;4.10;;
8260;SDS011;64115;50.170;8.242;2024-02-26T11:19:53;5.07;;;4.67;;
8260;SDS011;64115;50.170;8.242;2024-02-26T11:22:22;4.43;;;4.03;;
8260;SDS011;64115;50.170;8.242;2024-02-26T11:24:51;3.87;;;3.57;;
8260;SDS011;64115;50.170;8.242;2024-02-26T11:27:19;4.43;;;4.03;;
8260;SDS011;64115;50.170;8.242;2024-02-26T11:29:50;3.70;;;3.40;;
8260;SDS011;64115;50.170;8.242;2024-02-26T11:32:20;4.23;;;3.93;;
8260;SDS011;64115;50.170;8.242;2024-02-26T11:34:47;4.00;;;3.70;;
8260;SDS011;64115;50.170;8.242;2024-02-26T11:37:15;6.07;;;4.33;;
8260;SDS011;64115;50.170;8.242;2024-02-26T11:39:43;4.27;;;3.97;;
8260;SDS011;64115;50.170;8.242;2024-02-26T11:42:13;4.20;;;3.70;;
8260;SDS011;64115;50.170;8.242;2024-02-26T11:44:41;4.00;;;3.60;;
8260;SDS011;64115;50.170;8.242;2024-02-26T11:47:10;5.03;;;4.20;;
8260;SDS011;64115;50.170;8.242;2024-02-26T11:49:39;4.63;;;4.23;;
8260;SDS011;64115;50.170;8.242;2024-02-26T11:52:07;4.20;;;3.80;;
8260;SDS011;64115;50.170;8.242;2024-02-26T11:54:44;4.37;;;3.63;;
8260;SDS011;64115;50.170;8.242;2024-02-26T11:57:22;4.50;;;3.60;;
8260;SDS011;64115;50.170;8.242;2024-02-26T11:59:53;3.90;;;3.60;;
8260;SDS011;64115;50.170;8.242;2024-02-26T12:02:37;4.00;;;3.70;;
8260;SDS011;64115;50.170;8.242;2024-02-26T12:05:07;4.53;;;4.17;;
8260;SDS011;64115;50.170;8.242;2024-02-26T12:07:39;4.20;;;3.53;;
8260;SDS011;64115;50.170;8.242;2024-02-26T12:10:22;4.27;;;3.97;;
8260;SDS011;64115;50.170;8.242;2024-02-26T12:12:53;3.90;;;3.47;;
8260;SDS011;64115;50.170;8.242;2024-02-26T12:15:24;3.87;;;3.57;;
8260;SDS011;64115;50.170;8.242;2024-02-26T12:17:56;3.93;;;3.63;;
8260;SDS011;64115;50.170;8.242;2024-02-26T12:20:24;4.10;;;3.60;;
8260;SDS011;64115;50.170;8.242;2024-02-26T12:22:51;3.60;;;3.30;;
8260;SDS011;64115;50.170;8.242;2024-02-26T12:25:23;3.53;;;3.33;;
8260;SDS011;64115;50.170;8.242;2024-02-26T12:27:51;3.67;;;3.33;;
8260;SDS011;64115;50.170;8.242;2024-02-26T12:30:18;3.77;;;3.47;;
8260;SDS011;64115;50.170;8.242;2024-02-26T12:32:45;3.93;;;3.63;;
8260;SDS011;64115;50.170;8.242;2024-02-26T12:35:13;3.37;;;3.17;;
8260;SDS011;64115;50.170;8.242;2024-02-26T12:37:41;4.27;;;3.63;;
8260;SDS011;64115;50.170;8.242;2024-02-26T12:40:09;3.60;;;3.30;;
8260;SDS011;64115;50.170;8.242;2024-02-26T12:42:36;3.87;;;3.57;;
8260;SDS011;64115;50.170;8.242;2024-02-26T12:45:05;3.90;;;3.60;;
8260;SDS011;64115;50.170;8.242;2024-02-26T12:47:37;3.60;;;3.00;;
8260;SDS011;64115;50.170;8.242;2024-02-26T12:50:05;3.00;;;2.77;;
8260;SDS011;64115;50.170;8.242;2024-02-26T12:52:32;3.03;;;2.83;;
8260;SDS011;64115;50.170;8.242;2024-02-26T12:55:02;3.10;;;2.90;;
8260;SDS011;64115;50.170;8.242;2024-02-26T12:57:30;3.10;;;2.90;;
8260;SDS011;64115;50.170;8.242;2024-02-26T12:59:58;3.17;;;2.97;;
8260;SDS011;64115;50.170;8.242;2024-02-26T13:02:26;3.17;;;2.97;;
8260;SDS011;64115;50.170;8.242;2024-02-26T13:04:54;2.90;;;2.70;;
8260;SDS011;64115;50.170;8.242;2024-02-26T13:07:21;2.97;;;2.60;;
8260;SDS011;64115;50.170;8.242;2024-02-26T13:09:48;3.47;;;2.90;;
8260;SDS011;64115;50.170;8.242;2024-02-26T13:12:16;3.43;;;3.13;;
8260;SDS011;64115;50.170;8.242;2024-02-26T13:14:43;3.33;;;3.00;;
8260;SDS011;64115;50.170;8.242;2024-02-26T13:17:10;3.20;;;2.80;;
8260;SDS011;64115;50.170;8.242;2024-02-26T13:19:37;3.20;;;2.93;;
8260;SDS011;64115;50.170;8.242;2024-02-26T13:22:14;3.13;;;2.93;;
8260;SDS011;64115;50.170;8.242;2024-02-26T13:24:41;3.30;;;3.00;;
8260;SDS011;64115;50.170;8.242;2024-02-26T13:27:08;3.90;;;3.60;;
8260;SDS011;64115;50.170;8.242;2024-02-26T13:29:36;3.00;;;2.80;;
8260;SDS011;64115;50.170;8.242;2024-02-26T13:32:03;3.17;;;2.97;;
8260;SDS011;64115;50.170;8.242;2024-02-26T13:34:32;3.47;;;3.17;;
8260;SDS011;64115;50.170;8.242;2024-02-26T13:37:00;2.80;;;2.70;;
8260;SDS011;64115;50.170;8.242;2024-02-26T13:39:27;3.20;;;2.90;;
8260;SDS011;64115;50.170;8.242;2024-02-26T13:41:55;3.13;;;2.87;;
8260;SDS011;64115;50.170;8.242;2024-02-26T13:44:22;3.33;;;3.03;;
8260;SDS011;64115;50.170;8.242;2024-02-26T13:46:50;3.23;;;3.03;;
8260;SDS011;64115;50.170;8.242;2024-02-26T13:49:17;3.60;;;3.27;;
8260;SDS011;64115;50.170;8.242;2024-02-26T13:51:46;2.87;;;2.67;;
8260;SDS011;64115;50.170;8.242;2024-02-26T13:54:13;2.63;;;2.50;;
8260;SDS011;64115;50.170;8.242;2024-02-26T13:56:40;3.00;;;2.73;;
8260;SDS011;64115;50.170;8.242;2024-02-26T13:59:06;3.47;;;3.17;;
8260;SDS011;64115;50.170;8.242;2024-02-26T14:01:33;3.27;;;2.97;;
8260;SDS011;64115;50.170;8.242;2024-02-26T14:04:01;3.23;;;2.93;;
8260;SDS011;64115;50.170;8.242;2024-02-26T14:06:29;2.80;;;2.60;;
8260;SDS011;64115;50.170;8.242;2024-02-26T14:08:57;2.90;;;2.70;;
8260;SDS011;64115;50.170;8.242;2024-02-26T14:11:24;3.17;;;2.87;;
8260;SDS011;64115;50.170;8.242;2024-02-26T14:13:50;3.47;;;3.17;;
8260;SDS011;64115;50.170;8.242;2024-02-26T14:16:17;3.17;;;2.97;;
8260;SDS011;64115;50.170;8.242;2024-02-26T14:18:45;3.13;;;2.93;;
8260;SDS011;64115;50.170;8.242;2024-02-26T14:21:13;3.60;;;2.77;;
8260;SDS011;64115;50.170;8.242;2024-02-26T14:23:40;3.00;;;2.80;;
8260;SDS011;64115;50.170;8.242;2024-02-26T14:26:09;2.43;;;2.33;;
8260;SDS011;64115;50.170;8.242;2024-02-26T14:28:36;3.00;;;2.70;;
8260;SDS011;64115;50.170;8.242;2024-02-26T14:31:03;3.10;;;2.90;;
8260;SDS011;64115;50.170;8.242;2024-02-26T14:33:32;3.10;;;2.73;;
8260;SDS011;64115;50.170;8.242;2024-02-26T14:35:59;2.73;;;2.53;;
8260;SDS011;64115;50.170;8.242;2024-02-26T14:38:28;2.63;;;2.43;;
8260;SDS011;64115;50.170;8.242;2024-02-26T14:40:55;3.00;;;2.80;;
8260;SDS011;64115;50.170;8.242;2024-02-26T14:43:22;3.00;;;2.80;;
8260;SDS011;64115;50.170;8.242;2024-02-26T14:45:49;2.80;;;2.60;;
8260;SDS011;64115;50.170;8.242;2024-02-26T14:48:16;3.33;;;2.80;;
8260;SDS011;64115;50.170;8.242;2024-02-26T14:50:43;3.43;;;2.50;;
8260;SDS011;64115;50.170;8.242;2024-02-26T14:53:09;2.37;;;2.27;;
8260;SDS011;64115;50.170;8.242;2024-02-26T14:55:38;2.70;;;2.50;;
8260;SDS011;64115;50.170;8.242;2024-02-26T14:58:04;2.70;;;2.43;;
8260;SDS011;64115;50.170;8.242;2024-02-26T15:00:31;2.60;;;2.40;;
8260;SDS011;64115;50.170;8.242;2024-02-26T15:03:00;2.40;;;2.20;;